sensor_id;sensor_type;location;lat;lon;timestamp;temperature;humidity
55313;DHT22;46892;45.668;11.756;2023-04-01T00:00:22;8.90;85.00
55313;DHT22;46892;45.668;11.756;2023-04-01T00:02:48;8.80;86.20
55313;DHT22;46892;45.668;11.756;2023-04-01T00:05:14;8.70;85.70
55313;DHT22;46892;45.668;11.756;2023-04-01T00:07:41;8.70;86.00
55313;DHT22;46892;45.668;11.756;2023-04-01T00:10:10;8.40;84.00
55313;DHT22;46892;45.668;11.756;2023-04-01T00:12:37;8.10;83.40
55313;DHT22;46892;45.668;11.756;2023-04-01T00:15:05;7.90;84.40
55313;DHT22;46892;45.668;11.756;2023-04-01T00:17:31;7.70;85.40
55313;DHT22;46892;45.668;11.756;2023-04-01T00:19:57;7.70;86.00
55313;DHT22;46892;45.668;11.756;2023-04-01T00:22:24;7.70;86.30
55313;DHT22;46892;45.668;11.756;2023-04-01T00:24:50;7.60;85.30
55313;DHT22;46892;45.668;11.756;2023-04-01T00:27:16;7.30;85.40
55313;DHT22;46892;45.668;11.756;2023-04-01T00:29:42;7.40;86.30
55313;DHT22;46892;45.668;11.756;2023-04-01T00:32:08;7.60;87.40
55313;DHT22;46892;45.668;11.756;2023-04-01T00:34:34;7.80;87.90
55313;DHT22;46892;45.668;11.756;2023-04-01T00:36:59;7.80;87.80
55313;DHT22;46892;45.668;11.756;2023-04-01T00:39:28;7.80;87.70
55313;DHT22;46892;45.668;11.756;2023-04-01T00:41:54;7.90;87.80
55313;DHT22;46892;45.668;11.756;2023-04-01T00:44:22;7.90;87.70
55313;DHT22;46892;45.668;11.756;2023-04-01T00:46:48;7.80;87.70
55313;DHT22;46892;45.668;11.756;2023-04-01T00:49:16;7.80;86.30
55313;DHT22;46892;45.668;11.756;2023-04-01T00:51:45;7.90;86.50
55313;DHT22;46892;45.668;11.756;2023-04-01T00:54:15;8.00;86.20
55313;DHT22;46892;45.668;11.756;2023-04-01T00:56:50;8.10;85.90
55313;DHT22;46892;45.668;11.756;2023-04-01T00:59:26;8.10;86.30
55313;DHT22;46892;45.668;11.756;2023-04-01T01:01:52;8.20;87.00
55313;DHT22;46892;45.668;11.756;2023-04-01T01:04:24;8.30;87.80
55313;DHT22;46892;45.668;11.756;2023-04-01T01:07:06;8.20;86.50
55313;DHT22;46892;45.668;11.756;2023-04-01T01:10:08;8.10;87.20
55313;DHT22;46892;45.668;11.756;2023-04-01T01:15:24;8.00;85.30
55313;DHT22;46892;45.668;11.756;2023-04-01T01:23:29;7.90;85.70
55313;DHT22;46892;45.668;11.756;2023-04-01T01:36:59;7.90;85.70
55313;DHT22;46892;45.668;11.756;2023-04-01T01:39:29;8.00;84.60
55313;DHT22;46892;45.668;11.756;2023-04-01T01:42:02;8.10;84.20
55313;DHT22;46892;45.668;11.756;2023-04-01T01:44:30;8.20;84.70
55313;DHT22;46892;45.668;11.756;2023-04-01T01:46:58;8.10;85.00
55313;DHT22;46892;45.668;11.756;2023-04-01T01:49:25;7.80;83.40
55313;DHT22;46892;45.668;11.756;2023-04-01T01:51:52;7.70;84.20
55313;DHT22;46892;45.668;11.756;2023-04-01T01:54:18;7.50;84.70
55313;DHT22;46892;45.668;11.756;2023-04-01T01:56:47;7.30;84.80
55313;DHT22;46892;45.668;11.756;2023-04-01T01:59:15;7.20;85.00
55313;DHT22;46892;45.668;11.756;2023-04-01T02:01:46;7.10;85.30
55313;DHT22;46892;45.668;11.756;2023-04-01T02:04:14;6.90;86.20
55313;DHT22;46892;45.668;11.756;2023-04-01T02:06:49;6.80;85.60
55313;DHT22;46892;45.668;11.756;2023-04-01T02:09:18;6.70;85.40
55313;DHT22;46892;45.668;11.756;2023-04-01T02:11:56;6.60;86.20
55313;DHT22;46892;45.668;11.756;2023-04-01T02:14:33;6.60;86.90
55313;DHT22;46892;45.668;11.756;2023-04-01T02:17:05;6.70;86.60
55313;DHT22;46892;45.668;11.756;2023-04-01T02:19:45;6.50;85.70
55313;DHT22;46892;45.668;11.756;2023-04-01T02:22:15;6.40;86.50
55313;DHT22;46892;45.668;11.756;2023-04-01T02:24:42;6.50;86.50
55313;DHT22;46892;45.668;11.756;2023-04-01T02:27:10;6.50;87.10
55313;DHT22;46892;45.668;11.756;2023-04-01T02:29:36;6.50;87.90
55313;DHT22;46892;45.668;11.756;2023-04-01T02:32:02;6.50;88.20
55313;DHT22;46892;45.668;11.756;2023-04-01T02:34:28;6.70;87.40
55313;DHT22;46892;45.668;11.756;2023-04-01T02:36:55;6.80;86.60
55313;DHT22;46892;45.668;11.756;2023-04-01T02:39:21;6.80;86.50
55313;DHT22;46892;45.668;11.756;2023-04-01T02:41:47;7.00;87.50
55313;DHT22;46892;45.668;11.756;2023-04-01T02:44:14;7.10;87.90
55313;DHT22;46892;45.668;11.756;2023-04-01T02:46:41;7.10;88.00
55313;DHT22;46892;45.668;11.756;2023-04-01T02:49:07;7.00;87.00
55313;DHT22;46892;45.668;11.756;2023-04-01T02:51:33;7.00;87.10
55313;DHT22;46892;45.668;11.756;2023-04-01T02:53:58;7.00;87.50
55313;DHT22;46892;45.668;11.756;2023-04-01T02:56:24;7.00;87.20
55313;DHT22;46892;45.668;11.756;2023-04-01T02:58:51;6.90;87.30
55313;DHT22;46892;45.668;11.756;2023-04-01T03:01:17;6.90;87.10
55313;DHT22;46892;45.668;11.756;2023-04-01T03:03:43;6.90;87.00
55313;DHT22;46892;45.668;11.756;2023-04-01T03:06:11;7.00;86.90
55313;DHT22;46892;45.668;11.756;2023-04-01T03:08:37;7.00;86.50
55313;DHT22;46892;45.668;11.756;2023-04-01T03:11:03;6.90;84.00
55313;DHT22;46892;45.668;11.756;2023-04-01T03:13:29;6.80;83.80
55313;DHT22;46892;45.668;11.756;2023-04-01T03:15:55;6.70;84.90
55313;DHT22;46892;45.668;11.756;2023-04-01T03:18:20;6.70;84.20
55313;DHT22;46892;45.668;11.756;2023-04-01T03:20:46;6.70;83.40
55313;DHT22;46892;45.668;11.756;2023-04-01T03:23:12;6.70;84.60
55313;DHT22;46892;45.668;11.756;2023-04-01T03:25:38;6.60;84.90
55313;DHT22;46892;45.668;11.756;2023-04-01T03:28:04;6.60;85.30
55313;DHT22;46892;45.668;11.756;2023-04-01T03:30:30;6.50;85.50
55313;DHT22;46892;45.668;11.756;2023-04-01T03:32:57;6.70;86.50
55313;DHT22;46892;45.668;11.756;2023-04-01T03:35:23;6.80;86.00
55313;DHT22;46892;45.668;11.756;2023-04-01T03:37:51;6.60;84.80
55313;DHT22;46892;45.668;11.756;2023-04-01T03:40:16;6.30;85.70
55313;DHT22;46892;45.668;11.756;2023-04-01T03:42:42;6.30;86.50
55313;DHT22;46892;45.668;11.756;2023-04-01T03:45:08;6.30;85.60
55313;DHT22;46892;45.668;11.756;2023-04-01T03:47:35;6.10;86.00
55313;DHT22;46892;45.668;11.756;2023-04-01T03:50:00;6.10;87.10
55313;DHT22;46892;45.668;11.756;2023-04-01T03:52:26;6.10;87.30
55313;DHT22;46892;45.668;11.756;2023-04-01T03:54:52;6.00;86.60
55313;DHT22;46892;45.668;11.756;2023-04-01T03:57:18;6.00;86.60
55313;DHT22;46892;45.668;11.756;2023-04-01T03:59:43;6.10;86.50
55313;DHT22;46892;45.668;11.756;2023-04-01T04:02:09;6.10;86.30
55313;DHT22;46892;45.668;11.756;2023-04-01T04:04:35;6.10;86.70
55313;DHT22;46892;45.668;11.756;2023-04-01T04:07:01;6.20;87.00
55313;DHT22;46892;45.668;11.756;2023-04-01T04:09:26;6.30;87.10
55313;DHT22;46892;45.668;11.756;2023-04-01T04:11:52;6.50;86.50
55313;DHT22;46892;45.668;11.756;2023-04-01T04:14:18;6.60;85.50
55313;DHT22;46892;45.668;11.756;2023-04-01T04:16:44;6.60;84.60
55313;DHT22;46892;45.668;11.756;2023-04-01T04:19:09;6.50;85.30
55313;DHT22;46892;45.668;11.756;2023-04-01T04:21:35;6.30;85.40
55313;DHT22;46892;45.668;11.756;2023-04-01T04:24:01;6.10;85.70
55313;DHT22;46892;45.668;11.756;2023-04-01T04:26:27;6.00;86.10
55313;DHT22;46892;45.668;11.756;2023-04-01T04:28:54;5.80;86.90
55313;DHT22;46892;45.668;11.756;2023-04-01T04:31:21;5.60;86.80
55313;DHT22;46892;45.668;11.756;2023-04-01T04:33:47;5.60;86.40
55313;DHT22;46892;45.668;11.756;2023-04-01T04:36:13;5.60;86.10
55313;DHT22;46892;45.668;11.756;2023-04-01T04:38:39;5.80;86.30
55313;DHT22;46892;45.668;11.756;2023-04-01T04:41:16;5.70;85.60
55313;DHT22;46892;45.668;11.756;2023-04-01T04:43:50;5.80;84.20
55313;DHT22;46892;45.668;11.756;2023-04-01T04:46:16;5.70;84.90
55313;DHT22;46892;45.668;11.756;2023-04-01T04:48:42;6.00;86.20
55313;DHT22;46892;45.668;11.756;2023-04-01T04:51:13;6.00;85.20
55313;DHT22;46892;45.668;11.756;2023-04-01T04:53:39;6.20;85.30
55313;DHT22;46892;45.668;11.756;2023-04-01T04:56:06;6.10;83.60
55313;DHT22;46892;45.668;11.756;2023-04-01T04:58:31;5.90;84.10
55313;DHT22;46892;45.668;11.756;2023-04-01T05:00:57;5.80;84.50
55313;DHT22;46892;45.668;11.756;2023-04-01T05:03:23;5.90;85.30
55313;DHT22;46892;45.668;11.756;2023-04-01T05:05:51;5.80;84.90
55313;DHT22;46892;45.668;11.756;2023-04-01T05:08:17;5.80;85.10
55313;DHT22;46892;45.668;11.756;2023-04-01T05:10:43;5.70;85.00
55313;DHT22;46892;45.668;11.756;2023-04-01T05:13:09;5.50;85.80
55313;DHT22;46892;45.668;11.756;2023-04-01T05:15:35;5.50;86.10
55313;DHT22;46892;45.668;11.756;2023-04-01T05:18:01;5.70;86.90
55313;DHT22;46892;45.668;11.756;2023-04-01T05:20:26;5.80;86.30
55313;DHT22;46892;45.668;11.756;2023-04-01T05:22:59;6.00;85.10
55313;DHT22;46892;45.668;11.756;2023-04-01T05:25:25;6.20;85.40
55313;DHT22;46892;45.668;11.756;2023-04-01T05:27:51;6.30;85.00
55313;DHT22;46892;45.668;11.756;2023-04-01T05:30:17;6.70;84.00
55313;DHT22;46892;45.668;11.756;2023-04-01T05:32:43;7.00;83.70
55313;DHT22;46892;45.668;11.756;2023-04-01T05:35:09;7.10;83.30
55313;DHT22;46892;45.668;11.756;2023-04-01T05:37:35;7.30;82.80
55313;DHT22;46892;45.668;11.756;2023-04-01T05:40:02;7.40;81.90
55313;DHT22;46892;45.668;11.756;2023-04-01T05:42:28;7.40;82.40
55313;DHT22;46892;45.668;11.756;2023-04-01T05:44:53;7.40;82.20
55313;DHT22;46892;45.668;11.756;2023-04-01T05:47:21;7.30;84.10
55313;DHT22;46892;45.668;11.756;2023-04-01T05:49:46;7.40;85.10
55313;DHT22;46892;45.668;11.756;2023-04-01T05:52:12;7.60;85.50
55313;DHT22;46892;45.668;11.756;2023-04-01T05:54:38;8.20;84.80
55313;DHT22;46892;45.668;11.756;2023-04-01T05:57:04;9.10;81.80
55313;DHT22;46892;45.668;11.756;2023-04-01T05:59:29;9.90;78.90
55313;DHT22;46892;45.668;11.756;2023-04-01T06:01:57;10.70;76.20
55313;DHT22;46892;45.668;11.756;2023-04-01T06:04:23;11.20;75.00
55313;DHT22;46892;45.668;11.756;2023-04-01T06:06:49;11.60;74.60
55313;DHT22;46892;45.668;11.756;2023-04-01T06:09:18;11.80;73.70
55313;DHT22;46892;45.668;11.756;2023-04-01T06:15:07;11.50;74.50
55313;DHT22;46892;45.668;11.756;2023-04-01T06:20:25;11.30;75.90
55313;DHT22;46892;45.668;11.756;2023-04-01T06:26:30;11.00;73.90
55313;DHT22;46892;45.668;11.756;2023-04-01T06:32:00;10.40;75.90
55313;DHT22;46892;45.668;11.756;2023-04-01T06:40:05;10.50;78.00
55313;DHT22;46892;45.668;11.756;2023-04-01T06:45:18;11.10;76.60
55313;DHT22;46892;45.668;11.756;2023-04-01T06:57:52;12.60;74.10
55313;DHT22;46892;45.668;11.756;2023-04-01T07:00:37;12.80;72.50
55313;DHT22;46892;45.668;11.756;2023-04-01T07:06:04;12.90;72.40
55313;DHT22;46892;45.668;11.756;2023-04-01T07:08:35;12.80;72.30
55313;DHT22;46892;45.668;11.756;2023-04-01T07:11:04;12.80;76.80
55313;DHT22;46892;45.668;11.756;2023-04-01T07:13:39;12.90;74.50
55313;DHT22;46892;45.668;11.756;2023-04-01T07:16:14;13.00;74.40
55313;DHT22;46892;45.668;11.756;2023-04-01T07:19:36;13.20;72.60
55313;DHT22;46892;45.668;11.756;2023-04-01T07:24:11;13.60;75.90
55313;DHT22;46892;45.668;11.756;2023-04-01T07:26:39;14.10;75.40
55313;DHT22;46892;45.668;11.756;2023-04-01T07:29:09;14.60;74.40
55313;DHT22;46892;45.668;11.756;2023-04-01T07:32:16;15.00;74.40
55313;DHT22;46892;45.668;11.756;2023-04-01T07:49:04;15.70;68.80
55313;DHT22;46892;45.668;11.756;2023-04-01T07:54:09;15.60;69.90
55313;DHT22;46892;45.668;11.756;2023-04-01T08:05:27;15.10;65.30
55313;DHT22;46892;45.668;11.756;2023-04-01T08:07:59;15.00;71.00
55313;DHT22;46892;45.668;11.756;2023-04-01T08:10:46;15.00;67.10
55313;DHT22;46892;45.668;11.756;2023-04-01T08:13:21;14.90;67.20
55313;DHT22;46892;45.668;11.756;2023-04-01T08:21:35;14.50;66.90
55313;DHT22;46892;45.668;11.756;2023-04-01T08:24:22;14.40;69.50
55313;DHT22;46892;45.668;11.756;2023-04-01T08:26:53;14.30;69.20
55313;DHT22;46892;45.668;11.756;2023-04-01T08:29:24;14.20;70.70
55313;DHT22;46892;45.668;11.756;2023-04-01T08:32:11;14.30;72.70
55313;DHT22;46892;45.668;11.756;2023-04-01T08:34:40;14.40;69.30
55313;DHT22;46892;45.668;11.756;2023-04-01T08:37:19;14.40;67.20
55313;DHT22;46892;45.668;11.756;2023-04-01T08:39:53;14.30;68.20
55313;DHT22;46892;45.668;11.756;2023-04-01T08:57:04;14.20;65.50
55313;DHT22;46892;45.668;11.756;2023-04-01T09:08:31;14.70;65.10
55313;DHT22;46892;45.668;11.756;2023-04-01T09:11:17;14.80;67.50
55313;DHT22;46892;45.668;11.756;2023-04-01T09:14:07;15.20;68.10
55313;DHT22;46892;45.668;11.756;2023-04-01T09:19:29;15.60;65.40
55313;DHT22;46892;45.668;11.756;2023-04-01T09:22:16;15.80;69.20
55313;DHT22;46892;45.668;11.756;2023-04-01T09:30:33;15.70;60.60
55313;DHT22;46892;45.668;11.756;2023-04-01T09:41:32;15.90;60.70
55313;DHT22;46892;45.668;11.756;2023-04-01T09:47:16;15.80;60.20
55313;DHT22;46892;45.668;11.756;2023-04-01T09:49:56;15.80;62.70
55313;DHT22;46892;45.668;11.756;2023-04-01T09:55:19;16.40;58.80
55313;DHT22;46892;45.668;11.756;2023-04-01T09:58:22;16.30;59.30
55313;DHT22;46892;45.668;11.756;2023-04-01T10:15:19;16.70;59.50
55313;DHT22;46892;45.668;11.756;2023-04-01T10:35:08;16.80;53.20
55313;DHT22;46892;45.668;11.756;2023-04-01T10:40:44;16.60;57.20
55313;DHT22;46892;45.668;11.756;2023-04-01T10:46:08;16.60;57.70
55313;DHT22;46892;45.668;11.756;2023-04-01T10:54:14;16.70;57.30
55313;DHT22;46892;45.668;11.756;2023-04-01T10:57:20;16.70;55.10
55313;DHT22;46892;45.668;11.756;2023-04-01T11:03:21;16.70;58.20
55313;DHT22;46892;45.668;11.756;2023-04-01T11:06:38;16.60;55.70
55313;DHT22;46892;45.668;11.756;2023-04-01T11:20:44;16.80;58.30
55313;DHT22;46892;45.668;11.756;2023-04-01T11:26:05;17.10;63.40
55313;DHT22;46892;45.668;11.756;2023-04-01T11:34:41;17.70;60.70
55313;DHT22;46892;45.668;11.756;2023-04-01T11:46:07;18.00;59.80
55313;DHT22;46892;45.668;11.756;2023-04-01T12:00:30;17.90;59.40
55313;DHT22;46892;45.668;11.756;2023-04-01T12:05:48;18.10;60.90
55313;DHT22;46892;45.668;11.756;2023-04-01T12:08:35;18.10;61.60
55313;DHT22;46892;45.668;11.756;2023-04-01T12:11:34;18.20;61.10
55313;DHT22;46892;45.668;11.756;2023-04-01T12:24:52;18.20;60.20
55313;DHT22;46892;45.668;11.756;2023-04-01T12:30:02;18.10;59.60
55313;DHT22;46892;45.668;11.756;2023-04-01T12:32:46;18.10;58.80
55313;DHT22;46892;45.668;11.756;2023-04-01T12:35:22;18.10;60.80
55313;DHT22;46892;45.668;11.756;2023-04-01T12:38:31;18.10;61.30
55313;DHT22;46892;45.668;11.756;2023-04-01T12:43:52;18.20;59.80
55313;DHT22;46892;45.668;11.756;2023-04-01T12:49:53;18.40;58.10
55313;DHT22;46892;45.668;11.756;2023-04-01T13:03:05;18.70;55.90
55313;DHT22;46892;45.668;11.756;2023-04-01T13:16:24;18.70;57.30
55313;DHT22;46892;45.668;11.756;2023-04-01T13:19:09;18.60;56.40
55313;DHT22;46892;45.668;11.756;2023-04-01T13:24:55;18.40;55.70
55313;DHT22;46892;45.668;11.756;2023-04-01T13:33:15;18.50;56.70
55313;DHT22;46892;45.668;11.756;2023-04-01T13:35:35;18.60;56.00
55313;DHT22;46892;45.668;11.756;2023-04-01T13:43:36;18.40;58.80
55313;DHT22;46892;45.668;11.756;2023-04-01T13:49:05;18.70;60.20
55313;DHT22;46892;45.668;11.756;2023-04-01T14:00:35;18.70;56.10
55313;DHT22;46892;45.668;11.756;2023-04-01T14:06:05;18.60;54.50
55313;DHT22;46892;45.668;11.756;2023-04-01T14:17:10;18.60;56.60
55313;DHT22;46892;45.668;11.756;2023-04-01T14:31:10;18.80;56.50
55313;DHT22;46892;45.668;11.756;2023-04-01T14:39:33;18.80;54.80
55313;DHT22;46892;45.668;11.756;2023-04-01T14:45:24;18.70;49.40
55313;DHT22;46892;45.668;11.756;2023-04-01T14:50:57;18.60;54.00
55313;DHT22;46892;45.668;11.756;2023-04-01T14:53:31;18.60;55.60
55313;DHT22;46892;45.668;11.756;2023-04-01T14:56:00;18.50;52.90
55313;DHT22;46892;45.668;11.756;2023-04-01T14:58:49;18.50;51.60
55313;DHT22;46892;45.668;11.756;2023-04-01T15:20:44;18.50;53.50
55313;DHT22;46892;45.668;11.756;2023-04-01T15:31:41;18.40;51.20
55313;DHT22;46892;45.668;11.756;2023-04-01T15:36:53;18.40;54.30
55313;DHT22;46892;45.668;11.756;2023-04-01T15:45:31;17.80;53.50
55313;DHT22;46892;45.668;11.756;2023-04-01T15:51:10;17.90;55.90
55313;DHT22;46892;45.668;11.756;2023-04-01T15:56:53;17.90;56.40
55313;DHT22;46892;45.668;11.756;2023-04-01T16:13:22;17.70;55.50
55313;DHT22;46892;45.668;11.756;2023-04-01T16:20:59;17.60;55.70
55313;DHT22;46892;45.668;11.756;2023-04-01T16:23:30;17.60;55.20
55313;DHT22;46892;45.668;11.756;2023-04-01T16:35:20;17.60;55.70
55313;DHT22;46892;45.668;11.756;2023-04-01T16:37:51;17.50;59.30
55313;DHT22;46892;45.668;11.756;2023-04-01T16:40:36;17.50;56.50
55313;DHT22;46892;45.668;11.756;2023-04-01T16:45:53;17.50;57.70
55313;DHT22;46892;45.668;11.756;2023-04-01T16:51:15;17.30;56.50
55313;DHT22;46892;45.668;11.756;2023-04-01T16:53:43;17.30;56.10
55313;DHT22;46892;45.668;11.756;2023-04-01T16:56:22;17.30;54.70
55313;DHT22;46892;45.668;11.756;2023-04-01T17:01:48;17.80;54.60
55313;DHT22;46892;45.668;11.756;2023-04-01T17:15:25;17.70;58.50
55313;DHT22;46892;45.668;11.756;2023-04-01T17:18:09;17.30;62.30
55313;DHT22;46892;45.668;11.756;2023-04-01T17:20:43;16.90;64.80
55313;DHT22;46892;45.668;11.756;2023-04-01T17:26:34;16.40;67.20
55313;DHT22;46892;45.668;11.756;2023-04-01T17:32:14;16.10;68.70
55313;DHT22;46892;45.668;11.756;2023-04-01T17:35:11;15.80;69.40
55313;DHT22;46892;45.668;11.756;2023-04-01T17:37:54;15.70;69.70
55313;DHT22;46892;45.668;11.756;2023-04-01T17:46:05;15.10;72.50
55313;DHT22;46892;45.668;11.756;2023-04-01T17:49:17;14.90;72.80
55313;DHT22;46892;45.668;11.756;2023-04-01T17:52:02;14.80;73.20
55313;DHT22;46892;45.668;11.756;2023-04-01T18:26:07;13.40;78.30
55313;DHT22;46892;45.668;11.756;2023-04-01T18:28:59;13.40;78.50
55313;DHT22;46892;45.668;11.756;2023-04-01T18:31:44;13.40;78.60
55313;DHT22;46892;45.668;11.756;2023-04-01T18:34:39;13.50;78.40
55313;DHT22;46892;45.668;11.756;2023-04-01T18:37:18;13.70;78.10
55313;DHT22;46892;45.668;11.756;2023-04-01T18:40:41;13.70;77.90
55313;DHT22;46892;45.668;11.756;2023-04-01T18:45:37;13.60;77.50
55313;DHT22;46892;45.668;11.756;2023-04-01T18:50:43;13.30;77.30
55313;DHT22;46892;45.668;11.756;2023-04-01T18:55:59;13.20;77.30
55313;DHT22;46892;45.668;11.756;2023-04-01T18:58:34;13.00;77.70
55313;DHT22;46892;45.668;11.756;2023-04-01T19:06:20;12.50;78.80
55313;DHT22;46892;45.668;11.756;2023-04-01T19:08:47;12.50;79.10
55313;DHT22;46892;45.668;11.756;2023-04-01T19:16:38;12.40;79.50
55313;DHT22;46892;45.668;11.756;2023-04-01T19:21:58;12.50;79.40
55313;DHT22;46892;45.668;11.756;2023-04-01T19:24:35;12.50;79.30
55313;DHT22;46892;45.668;11.756;2023-04-01T19:32:25;12.50;79.30
55313;DHT22;46892;45.668;11.756;2023-04-01T19:43:06;12.50;79.60
55313;DHT22;46892;45.668;11.756;2023-04-01T19:45:38;12.50;79.60
55313;DHT22;46892;45.668;11.756;2023-04-01T19:50:59;12.50;79.50
55313;DHT22;46892;45.668;11.756;2023-04-01T19:53:47;12.50;79.50
55313;DHT22;46892;45.668;11.756;2023-04-01T19:56:18;12.50;79.50
55313;DHT22;46892;45.668;11.756;2023-04-01T20:04:03;12.70;79.20
55313;DHT22;46892;45.668;11.756;2023-04-01T20:07:09;12.70;79.40
55313;DHT22;46892;45.668;11.756;2023-04-01T20:15:32;12.80;79.00
55313;DHT22;46892;45.668;11.756;2023-04-01T20:18:18;12.80;78.90
55313;DHT22;46892;45.668;11.756;2023-04-01T20:20:57;12.90;78.90
55313;DHT22;46892;45.668;11.756;2023-04-01T20:23:52;12.90;78.80
55313;DHT22;46892;45.668;11.756;2023-04-01T20:26:32;12.90;78.60
55313;DHT22;46892;45.668;11.756;2023-04-01T20:32:04;12.90;78.10
55313;DHT22;46892;45.668;11.756;2023-04-01T20:37:37;12.90;77.60
55313;DHT22;46892;45.668;11.756;2023-04-01T20:40:26;12.90;77.60
55313;DHT22;46892;45.668;11.756;2023-04-01T20:46:22;12.80;78.50
55313;DHT22;46892;45.668;11.756;2023-04-01T20:49:00;12.80;79.10
55313;DHT22;46892;45.668;11.756;2023-04-01T20:51:38;12.80;79.20
55313;DHT22;46892;45.668;11.756;2023-04-01T21:02:51;12.80;79.40
55313;DHT22;46892;45.668;11.756;2023-04-01T21:05:42;12.80;79.80
55313;DHT22;46892;45.668;11.756;2023-04-01T21:08:29;12.80;79.60
55313;DHT22;46892;45.668;11.756;2023-04-01T21:16:25;12.80;79.80
55313;DHT22;46892;45.668;11.756;2023-04-01T21:21:57;12.80;79.80
55313;DHT22;46892;45.668;11.756;2023-04-01T21:38:33;12.80;78.30
55313;DHT22;46892;45.668;11.756;2023-04-01T21:52:24;12.80;77.30
55313;DHT22;46892;45.668;11.756;2023-04-01T22:00:21;12.80;76.70
55313;DHT22;46892;45.668;11.756;2023-04-01T22:14:21;12.80;75.90
55313;DHT22;46892;45.668;11.756;2023-04-01T22:16:58;12.80;75.80
55313;DHT22;46892;45.668;11.756;2023-04-01T22:22:21;12.80;76.10
55313;DHT22;46892;45.668;11.756;2023-04-01T22:24:56;12.80;75.80
55313;DHT22;46892;45.668;11.756;2023-04-01T22:27:35;12.80;75.90
55313;DHT22;46892;45.668;11.756;2023-04-01T22:30:27;12.80;75.90
55313;DHT22;46892;45.668;11.756;2023-04-01T22:41:16;12.80;76.60
55313;DHT22;46892;45.668;11.756;2023-04-01T22:43:46;12.70;76.80
55313;DHT22;46892;45.668;11.756;2023-04-01T22:51:47;12.70;77.60
55313;DHT22;46892;45.668;11.756;2023-04-01T22:54:31;12.70;77.70
55313;DHT22;46892;45.668;11.756;2023-04-01T22:59:58;12.80;76.90
55313;DHT22;46892;45.668;11.756;2023-04-01T23:02:47;12.90;76.80
55313;DHT22;46892;45.668;11.756;2023-04-01T23:05:18;12.80;76.90
55313;DHT22;46892;45.668;11.756;2023-04-01T23:07:48;12.80;77.10
55313;DHT22;46892;45.668;11.756;2023-04-01T23:12:45;12.70;77.20
55313;DHT22;46892;45.668;11.756;2023-04-01T23:15:13;12.70;76.90
55313;DHT22;46892;45.668;11.756;2023-04-01T23:17:55;12.70;76.90
55313;DHT22;46892;45.668;11.756;2023-04-01T23:36:11;12.30;79.80
55313;DHT22;46892;45.668;11.756;2023-04-01T23:38:40;12.20;79.80
55313;DHT22;46892;45.668;11.756;2023-04-01T23:41:09;12.20;80.10
55313;DHT22;46892;45.668;11.756;2023-04-01T23:43:43;12.20;80.10
55313;DHT22;46892;45.668;11.756;2023-04-01T23:46:12;12.20;80.80
55313;DHT22;46892;45.668;11.756;2023-04-01T23:48:42;12.10;80.70
55313;DHT22;46892;45.668;11.756;2023-04-01T23:51:29;12.30;80.30
55313;DHT22;46892;45.668;11.756;2023-04-01T23:54:03;12.30;80.20
55313;DHT22;46892;45.668;11.756;2023-04-01T23:56:44;12.20;80.10
55313;DHT22;46892;45.668;11.756;2023-04-01T23:59:27;12.20;80.40
